createdAt,value
2023-04-02T00:00:36.744Z,9.09
2023-04-02T00:03:10.261Z,9.18
2023-04-02T00:05:50.098Z,9.32
2023-04-02T00:08:23.458Z,9.11
2023-04-02T00:10:53.345Z,9.27
2023-04-02T00:13:28.689Z,9.01
2023-04-02T00:16:00.277Z,9.17
2023-04-02T00:18:27.487Z,9.10
2023-04-02T00:21:03.275Z,9.10
2023-04-02T00:23:32.042Z,9.17
2023-04-02T00:25:58.413Z,9.36
2023-04-02T00:28:24.969Z,9.19
2023-04-02T00:30:55.029Z,9.16
2023-04-02T00:33:25.649Z,9.24
2023-04-02T00:35:54.406Z,9.13
2023-04-02T00:38:31.704Z,9.16
2023-04-02T00:41:09.594Z,9.22
2023-04-02T00:43:39.670Z,9.29
2023-04-02T00:46:14.787Z,9.26
2023-04-02T00:48:49.149Z,9.17
2023-04-02T00:51:17.657Z,9.25
2023-04-02T00:53:47.191Z,9.26
2023-04-02T00:56:20.564Z,9.10
2023-04-02T00:58:53.110Z,9.16
2023-04-02T01:01:24.659Z,9.05
2023-04-02T01:03:59.642Z,9.09
2023-04-02T01:06:31.112Z,8.92
2023-04-02T01:09:03.823Z,9.05
2023-04-02T01:11:55.568Z,9.00
2023-04-02T01:15:01.165Z,9.04
2023-04-02T01:17:50.202Z,8.99
2023-04-02T01:20:28.646Z,8.99
2023-04-02T01:23:08.095Z,9.12
2023-04-02T01:25:34.546Z,9.02
2023-04-02T01:28:19.535Z,8.98
2023-04-02T01:30:55.920Z,9.15
2023-04-02T01:34:01.087Z,9.10
2023-04-02T01:36:41.072Z,8.98
2023-04-02T01:39:21.392Z,9.13
2023-04-02T01:42:17.485Z,9.21
2023-04-02T01:44:48.951Z,9.12
2023-04-02T01:47:21.443Z,9.18
2023-04-02T01:49:47.887Z,9.21
2023-04-02T01:52:35.852Z,9.23
2023-04-02T01:55:03.513Z,9.16
2023-04-02T01:57:31.136Z,9.28
2023-04-02T02:00:02.630Z,9.04
2023-04-02T02:02:31.283Z,9.03
2023-04-02T02:04:58.759Z,9.15
2023-04-02T02:07:28.277Z,9.03
2023-04-02T02:09:55.225Z,9.10
2023-04-02T02:12:22.932Z,9.11
2023-04-02T02:14:52.235Z,9.00
2023-04-02T02:17:30.378Z,9.00
2023-04-02T02:20:06.677Z,9.03
2023-04-02T02:22:53.424Z,9.07
2023-04-02T02:25:24.085Z,9.01
2023-04-02T02:27:54.893Z,9.21
2023-04-02T02:30:36.131Z,9.19
2023-04-02T02:33:15.228Z,9.12
2023-04-02T02:35:56.007Z,9.00
2023-04-02T02:38:39.980Z,9.03
2023-04-02T02:41:30.720Z,8.99
2023-04-02T02:44:12.306Z,9.03
2023-04-02T02:47:00.280Z,8.99
2023-04-02T02:49:38.019Z,9.06
2023-04-02T02:52:10.433Z,9.00
2023-04-02T02:54:40.362Z,9.01
2023-04-02T02:57:13.187Z,9.03
2023-04-02T02:59:40.802Z,9.11
2023-04-02T03:02:08.056Z,9.11
2023-04-02T03:04:36.269Z,8.99
2023-04-02T03:07:05.878Z,8.89
2023-04-02T03:10:09.955Z,8.83
2023-04-02T03:12:43.899Z,8.78
2023-04-02T03:15:32.328Z,8.84
2023-04-02T03:18:04.717Z,8.84
2023-04-02T03:20:39.319Z,8.91
2023-04-02T03:23:23.737Z,8.99
2023-04-02T03:26:12.464Z,8.95
2023-04-02T03:28:43.602Z,9.05
2023-04-02T03:31:38.175Z,8.99
2023-04-02T03:34:13.789Z,8.97
2023-04-02T03:36:53.199Z,8.99
2023-04-02T03:39:25.241Z,8.97
2023-04-02T03:42:10.148Z,8.86
2023-04-02T03:44:44.236Z,8.85
2023-04-02T03:47:19.935Z,8.86
2023-04-02T03:49:49.589Z,8.82
2023-04-02T03:52:29.903Z,8.83
2023-04-02T03:54:59.993Z,8.95
2023-04-02T03:57:36.876Z,8.87
2023-04-02T04:00:27.051Z,9.00
2023-04-02T04:02:59.155Z,9.05
2023-04-02T04:05:50.578Z,9.07
2023-04-02T04:08:25.180Z,9.02
2023-04-02T04:10:58.943Z,8.96
2023-04-02T04:13:37.061Z,8.93
2023-04-02T04:16:11.834Z,8.94
2023-04-02T04:18:52.271Z,8.99
2023-04-02T04:21:37.664Z,9.07
2023-04-02T04:24:17.042Z,8.92
2023-04-02T04:27:09.995Z,8.97
2023-04-02T04:29:45.684Z,8.96
2023-04-02T04:32:32.065Z,8.93
2023-04-02T04:35:04.656Z,9.00
2023-04-02T04:37:36.560Z,9.02
2023-04-02T04:40:09.243Z,9.07
2023-04-02T04:42:39.797Z,8.96
2023-04-02T04:45:34.181Z,8.97
2023-04-02T04:48:04.998Z,8.99
2023-04-02T04:50:38.595Z,9.09
2023-04-02T04:53:07.711Z,9.07
2023-04-02T04:55:40.638Z,9.04
2023-04-02T04:58:24.104Z,8.99
2023-04-02T05:00:58.704Z,9.05
2023-04-02T05:03:55.358Z,9.07
2023-04-02T05:06:36.971Z,9.03
2023-04-02T05:09:27.458Z,9.04
2023-04-02T05:12:04.140Z,9.16
2023-04-02T05:15:07.605Z,9.05
2023-04-02T05:17:47.838Z,9.17
2023-04-02T05:20:17.209Z,9.10
2023-04-02T05:22:53.103Z,9.15
2023-04-02T05:25:27.127Z,9.18
2023-04-02T05:28:10.902Z,9.15
2023-04-02T05:30:49.369Z,9.19
2023-04-02T05:33:22.846Z,9.16
2023-04-02T05:35:58.246Z,9.30
2023-04-02T05:38:31.537Z,9.22
2023-04-02T05:41:07.175Z,9.32
2023-04-02T05:43:37.624Z,9.24
2023-04-02T05:46:14.945Z,9.23
2023-04-02T05:48:48.368Z,9.20
2023-04-02T05:51:25.669Z,9.16
2023-04-02T05:54:04.918Z,9.19
2023-04-02T05:56:40.552Z,9.25
2023-04-02T05:59:51.006Z,9.19
2023-04-02T06:02:39.461Z,9.25
2023-04-02T06:05:15.823Z,9.55
2023-04-02T06:07:48.068Z,9.52
2023-04-02T06:10:24.908Z,9.56
2023-04-02T06:13:02.271Z,9.50
2023-04-02T06:15:34.752Z,9.49
2023-04-02T06:18:25.319Z,9.51
2023-04-02T06:20:52.347Z,9.60
2023-04-02T06:23:21.696Z,9.57
2023-04-02T06:26:17.152Z,9.70
2023-04-02T06:28:51.645Z,9.51
2023-04-02T06:31:36.222Z,9.66
2023-04-02T06:34:06.932Z,9.60
2023-04-02T06:36:36.382Z,9.63
2023-04-02T06:39:09.238Z,9.64
2023-04-02T06:41:35.643Z,9.66
2023-04-02T06:44:16.306Z,9.78
2023-04-02T06:46:51.849Z,9.73
2023-04-02T06:49:44.281Z,9.83
2023-04-02T06:52:24.021Z,9.67
2023-04-02T06:54:50.441Z,9.74
2023-04-02T06:57:17.094Z,9.82
2023-04-02T06:59:43.698Z,9.94
2023-04-02T07:02:24.673Z,9.79
2023-04-02T07:04:51.407Z,10.06
2023-04-02T07:07:21.191Z,10.00
2023-04-02T07:09:47.639Z,10.01
2023-04-02T07:12:22.354Z,10.05
2023-04-02T07:14:48.784Z,10.06
2023-04-02T07:17:19.550Z,9.94
2023-04-02T07:19:49.621Z,10.14
2023-04-02T07:22:17.573Z,10.01
2023-04-02T07:24:44.316Z,10.10
2023-04-02T07:27:12.132Z,10.08
2023-04-02T07:29:44.688Z,10.12
2023-04-02T07:32:12.756Z,10.09
2023-04-02T07:34:42.000Z,9.97
2023-04-02T07:37:16.380Z,10.13
2023-04-02T07:39:45.579Z,10.04
2023-04-02T07:42:11.910Z,10.31
2023-04-02T07:44:38.279Z,10.22
2023-04-02T07:47:04.907Z,10.41
2023-04-02T07:49:31.349Z,10.36
2023-04-02T07:51:57.810Z,10.47
2023-04-02T07:54:24.184Z,10.39
2023-04-02T07:56:50.833Z,10.49
2023-04-02T07:59:17.233Z,10.58
2023-04-02T08:01:43.780Z,10.63
2023-04-02T08:04:21.906Z,10.69
2023-04-02T08:06:49.547Z,10.74
2023-04-02T08:09:17.553Z,10.92
2023-04-02T08:11:46.751Z,11.05
2023-04-02T08:14:13.901Z,10.91
2023-04-02T08:16:51.771Z,10.99
2023-04-02T08:19:19.462Z,11.04
2023-04-02T08:21:47.942Z,11.14
2023-04-02T08:24:14.350Z,11.24
2023-04-02T08:26:41.702Z,11.15
2023-04-02T08:29:11.560Z,11.07
2023-04-02T08:31:38.300Z,11.20
2023-04-02T08:34:04.736Z,11.17
2023-04-02T08:36:35.478Z,11.23
2023-04-02T08:39:01.958Z,11.18
2023-04-02T08:41:28.898Z,11.07
2023-04-02T08:44:08.904Z,11.02
2023-04-02T08:46:48.346Z,11.02
2023-04-02T08:49:19.742Z,11.28
2023-04-02T08:51:52.202Z,11.27
2023-04-02T08:54:25.534Z,11.23
2023-04-02T08:56:58.125Z,11.36
2023-04-02T08:59:38.708Z,11.41
2023-04-02T09:02:50.292Z,11.46
2023-04-02T09:05:23.073Z,11.49
2023-04-02T09:07:56.318Z,11.48
2023-04-02T09:10:30.886Z,11.40
2023-04-02T09:12:58.638Z,11.44
2023-04-02T09:15:36.385Z,11.41
2023-04-02T09:18:18.766Z,11.35
2023-04-02T09:20:48.105Z,11.41
2023-04-02T09:23:24.165Z,11.35
2023-04-02T09:26:03.638Z,11.50
2023-04-02T09:28:31.541Z,11.67
2023-04-02T09:31:19.591Z,11.44
2023-04-02T09:33:47.302Z,11.67
2023-04-02T09:36:35.005Z,11.69
2023-04-02T09:39:06.983Z,11.75
2023-04-02T09:41:40.114Z,11.88
2023-04-02T09:44:14.096Z,11.82
2023-04-02T09:46:54.243Z,12.09
2023-04-02T09:49:27.107Z,12.08
2023-04-02T09:52:06.660Z,12.05
2023-04-02T09:54:33.221Z,12.37
2023-04-02T09:57:00.953Z,12.33
2023-04-02T09:59:27.815Z,12.12
2023-04-02T10:01:54.121Z,12.26
2023-04-02T10:04:45.007Z,12.99
2023-04-02T10:07:36.927Z,12.71
2023-04-02T10:10:25.239Z,13.09
2023-04-02T10:13:00.196Z,13.02
2023-04-02T10:15:34.166Z,13.29
2023-04-02T10:18:08.025Z,13.49
2023-04-02T10:20:50.432Z,13.07
2023-04-02T10:23:19.313Z,13.02
2023-04-02T10:25:56.832Z,13.46
2023-04-02T10:28:52.631Z,13.40
2023-04-02T10:31:25.480Z,13.75
2023-04-02T10:34:08.251Z,14.01
2023-04-02T10:36:43.551Z,14.59
2023-04-02T10:39:33.589Z,14.48
2023-04-02T10:42:16.505Z,14.29
2023-04-02T10:44:55.880Z,14.39
2023-04-02T10:47:47.247Z,14.27
2023-04-02T10:50:59.244Z,14.27
2023-04-02T10:53:40.600Z,14.63
2023-04-02T10:56:12.423Z,14.76
2023-04-02T10:58:57.818Z,14.58
2023-04-02T11:01:30.489Z,14.49
2023-04-02T11:04:20.799Z,14.39
2023-04-02T11:07:07.584Z,14.29
2023-04-02T11:09:43.264Z,14.69
2023-04-02T11:12:23.744Z,13.96
2023-04-02T11:14:52.063Z,14.29
2023-04-02T11:17:20.176Z,14.60
2023-04-02T11:19:46.957Z,14.78
2023-04-02T11:22:25.599Z,14.30
2023-04-02T11:24:57.025Z,14.38
2023-04-02T11:27:31.368Z,14.27
2023-04-02T11:30:16.026Z,13.20
2023-04-02T11:32:51.581Z,13.01
2023-04-02T11:35:44.267Z,12.63
2023-04-02T11:38:10.796Z,12.67
2023-04-02T11:40:47.161Z,12.44
2023-04-02T11:43:32.429Z,12.20
2023-04-02T11:46:21.877Z,12.18
2023-04-02T11:48:48.395Z,12.33
2023-04-02T11:51:21.447Z,11.74
2023-04-02T11:53:50.146Z,11.61
2023-04-02T11:56:28.526Z,11.93
2023-04-02T11:59:03.294Z,11.95
2023-04-02T12:01:34.903Z,11.85
2023-04-02T12:04:22.542Z,11.71
2023-04-02T12:07:17.802Z,11.54
2023-04-02T12:09:44.592Z,11.42
2023-04-02T12:12:29.924Z,11.31
2023-04-02T12:14:58.477Z,11.19
2023-04-02T12:17:37.290Z,11.11
2023-04-02T12:20:10.232Z,11.25
2023-04-02T12:22:47.640Z,11.13
2023-04-02T12:25:39.995Z,11.18
2023-04-02T12:28:09.450Z,11.06
2023-04-02T12:30:40.046Z,10.89
2023-04-02T12:33:25.048Z,11.17
2023-04-02T12:35:58.519Z,11.03
2023-04-02T12:38:34.664Z,10.74
2023-04-02T12:41:06.385Z,10.79
2023-04-02T12:43:34.917Z,10.79
2023-04-02T12:46:05.397Z,10.96
2023-04-02T12:48:33.466Z,10.93
2023-04-02T12:51:04.116Z,10.83
2023-04-02T12:53:44.274Z,10.75
2023-04-02T12:56:22.151Z,10.33
2023-04-02T12:58:59.728Z,10.70
2023-04-02T13:01:31.722Z,10.61
2023-04-02T13:04:07.679Z,10.87
2023-04-02T13:06:38.439Z,10.79
2023-04-02T13:09:07.360Z,10.88
2023-04-02T13:11:39.692Z,11.01
2023-04-02T13:14:17.356Z,10.98
2023-04-02T13:16:46.360Z,10.95
2023-04-02T13:19:27.186Z,11.02
2023-04-02T13:21:55.335Z,10.93
2023-04-02T13:24:30.327Z,10.71
2023-04-02T13:27:01.855Z,10.66
2023-04-02T13:29:36.274Z,10.67
2023-04-02T13:32:11.821Z,10.76
2023-04-02T13:34:40.901Z,10.69
2023-04-02T13:37:12.373Z,10.73
2023-04-02T13:39:38.739Z,10.72
2023-04-02T13:42:07.733Z,10.74
2023-04-02T13:44:37.492Z,10.67
2023-04-02T13:47:04.076Z,10.60
2023-04-02T13:49:31.775Z,10.69
2023-04-02T13:52:03.131Z,10.81
2023-04-02T13:54:37.203Z,10.83
2023-04-02T13:57:03.671Z,10.65
2023-04-02T13:59:30.294Z,10.66
2023-04-02T14:02:03.159Z,10.83
2023-04-02T14:04:35.326Z,10.95
2023-04-02T14:07:02.146Z,10.82
2023-04-02T14:09:47.865Z,10.70
2023-04-02T14:12:23.778Z,10.68
2023-04-02T14:15:03.695Z,10.48
2023-04-02T14:17:52.138Z,10.74
2023-04-02T14:20:31.001Z,10.51
2023-04-02T14:23:22.457Z,10.75
2023-04-02T14:25:58.074Z,10.58
2023-04-02T14:28:37.867Z,10.51
2023-04-02T14:31:15.578Z,10.31
2023-04-02T14:34:11.310Z,10.42
2023-04-02T14:36:46.045Z,10.35
2023-04-02T14:39:18.393Z,10.34
2023-04-02T14:42:04.478Z,10.38
2023-04-02T14:44:38.466Z,10.27
2023-04-02T14:47:31.267Z,10.17
2023-04-02T14:50:06.154Z,10.07
2023-04-02T14:52:37.564Z,10.13
2023-04-02T14:55:14.138Z,10.14
2023-04-02T14:57:48.985Z,10.26
2023-04-02T15:00:36.797Z,10.05
2023-04-02T15:03:18.916Z,10.22
2023-04-02T15:05:53.663Z,9.94
2023-04-02T15:08:29.861Z,10.05
2023-04-02T15:11:02.982Z,9.92
2023-04-02T15:13:49.098Z,10.02
2023-04-02T15:16:23.582Z,9.90
2023-04-02T15:18:52.076Z,9.94
2023-04-02T15:21:29.188Z,10.03
2023-04-02T15:24:04.177Z,9.92
2023-04-02T15:26:55.461Z,9.76
2023-04-02T15:29:29.528Z,9.62
2023-04-02T15:32:40.671Z,9.49
2023-04-02T15:35:23.174Z,9.45
2023-04-02T15:37:49.494Z,9.47
2023-04-02T15:40:15.904Z,9.20
2023-04-02T15:42:52.868Z,9.21
2023-04-02T15:45:29.111Z,9.21
2023-04-02T15:48:21.528Z,9.28
2023-04-02T15:51:01.767Z,9.42
2023-04-02T15:53:48.226Z,9.32
2023-04-02T15:56:46.050Z,9.18
2023-04-02T15:59:41.104Z,9.18
2023-04-02T16:02:27.404Z,9.20
2023-04-02T16:05:03.773Z,9.13
2023-04-02T16:07:57.474Z,9.26
2023-04-02T16:10:41.320Z,9.15
2023-04-02T16:13:18.213Z,9.11
2023-04-02T16:16:01.636Z,9.11
2023-04-02T16:18:44.144Z,9.08
2023-04-02T16:21:13.687Z,8.95
2023-04-02T16:23:41.906Z,9.07
2023-04-02T16:26:26.970Z,9.00
2023-04-02T16:29:12.485Z,9.00
2023-04-02T16:31:57.587Z,8.86
2023-04-02T16:35:09.512Z,8.85
2023-04-02T16:37:56.343Z,8.89
2023-04-02T16:40:42.845Z,8.94
2023-04-02T16:43:39.657Z,8.90
2023-04-02T16:46:38.724Z,9.01
2023-04-02T16:49:36.514Z,8.31
2023-04-02T16:52:11.665Z,8.23
2023-04-02T16:55:02.916Z,8.23
2023-04-02T16:57:40.080Z,8.28
2023-04-02T17:00:30.625Z,8.16
2023-04-02T17:03:30.460Z,8.01
2023-04-02T17:06:23.972Z,7.93
2023-04-02T17:09:02.656Z,8.05
2023-04-02T17:11:35.432Z,8.15
2023-04-02T17:14:06.423Z,8.01
2023-04-02T17:16:43.674Z,7.96
2023-04-02T17:19:12.794Z,8.02
2023-04-02T17:21:46.250Z,7.78
2023-04-02T17:24:23.982Z,7.92
2023-04-02T17:26:55.098Z,7.72
2023-04-02T17:29:35.023Z,7.72
2023-04-02T17:32:03.678Z,7.76
2023-04-02T17:34:30.546Z,7.71
2023-04-02T17:37:07.249Z,7.67
2023-04-02T17:39:54.959Z,7.58
2023-04-02T17:42:30.610Z,7.56
2023-04-02T17:45:02.999Z,7.66
2023-04-02T17:47:48.205Z,7.71
2023-04-02T17:50:17.591Z,7.42
2023-04-02T17:52:56.633Z,7.42
2023-04-02T17:55:41.608Z,7.43
2023-04-02T17:58:50.508Z,7.31
2023-04-02T18:01:28.817Z,7.46
2023-04-02T18:03:58.309Z,7.39
2023-04-02T18:06:43.955Z,7.37
2023-04-02T18:09:38.336Z,7.48
2023-04-02T18:12:29.567Z,7.59
2023-04-02T18:15:05.578Z,7.25
2023-04-02T18:18:07.695Z,7.18
2023-04-02T18:20:53.923Z,7.10
2023-04-02T18:23:26.126Z,7.00
2023-04-02T18:26:05.291Z,6.90
2023-04-02T18:28:45.819Z,6.91
2023-04-02T18:31:18.238Z,7.00
2023-04-02T18:33:50.853Z,6.79
2023-04-02T18:36:23.428Z,6.92
2023-04-02T18:39:08.222Z,7.10
2023-04-02T18:41:50.156Z,7.06
2023-04-02T18:44:36.200Z,7.11
2023-04-02T18:47:30.074Z,7.23
2023-04-02T18:50:16.327Z,7.23
2023-04-02T18:52:43.014Z,7.25
2023-04-02T18:55:24.879Z,6.96
2023-04-02T18:58:24.887Z,6.95
2023-04-02T19:00:51.947Z,7.04
2023-04-02T19:03:51.438Z,6.82
2023-04-02T19:06:28.723Z,6.91
2023-04-02T19:09:01.008Z,6.96
2023-04-02T19:11:31.447Z,6.76
2023-04-02T19:14:04.614Z,6.86
2023-04-02T19:16:45.002Z,6.81
2023-04-02T19:19:27.145Z,6.85
2023-04-02T19:22:32.366Z,6.95
2023-04-02T19:25:05.079Z,6.52
2023-04-02T19:27:34.039Z,6.41
2023-04-02T19:30:00.508Z,6.56
2023-04-02T19:32:54.896Z,6.24
2023-04-02T19:35:28.955Z,6.30
2023-04-02T19:38:22.134Z,6.27
2023-04-02T19:40:58.694Z,6.20
2023-04-02T19:43:25.506Z,6.20
2023-04-02T19:45:56.868Z,6.25
2023-04-02T19:48:30.854Z,6.22
2023-04-02T19:50:57.243Z,6.19
2023-04-02T19:53:23.787Z,6.17
2023-04-02T19:55:50.701Z,6.29
2023-04-02T19:58:29.698Z,6.27
2023-04-02T20:00:56.890Z,6.31
2023-04-02T20:03:23.640Z,6.24
2023-04-02T20:05:50.745Z,6.17
2023-04-02T20:08:17.521Z,6.19
2023-04-02T20:10:44.044Z,6.20
2023-04-02T20:13:13.185Z,5.97
2023-04-02T20:15:41.133Z,5.91
2023-04-02T20:18:10.862Z,5.93
2023-04-02T20:20:39.195Z,5.97
2023-04-02T20:23:08.035Z,5.96
2023-04-02T20:25:36.785Z,5.96
2023-04-02T20:28:04.017Z,6.00
2023-04-02T20:30:35.620Z,5.92
2023-04-02T20:33:04.906Z,5.83
2023-04-02T20:35:34.433Z,5.81
2023-04-02T20:38:03.013Z,5.95
2023-04-02T20:40:29.427Z,5.87
2023-04-02T20:42:55.949Z,5.74
2023-04-02T20:45:22.484Z,5.88
2023-04-02T20:47:48.939Z,5.84
2023-04-02T20:50:17.951Z,5.76
2023-04-02T20:52:44.774Z,5.82
2023-04-02T20:55:13.760Z,5.78
2023-04-02T20:57:42.594Z,5.94
2023-04-02T21:00:10.944Z,5.81
2023-04-02T21:02:37.597Z,5.82
2023-04-02T21:05:04.357Z,5.91
2023-04-02T21:07:33.194Z,5.99
2023-04-02T21:09:59.685Z,5.82
2023-04-02T21:12:26.044Z,5.84
2023-04-02T21:14:57.288Z,5.72
2023-04-02T21:17:24.126Z,5.84
2023-04-02T21:19:50.506Z,5.81
2023-04-02T21:22:21.734Z,5.59
2023-04-02T21:24:48.145Z,5.63
2023-04-02T21:27:17.300Z,5.51
2023-04-02T21:29:48.388Z,5.26
2023-04-02T21:32:21.755Z,5.43
2023-04-02T21:34:48.659Z,5.30
2023-04-02T21:37:15.417Z,5.42
2023-04-02T21:39:41.785Z,5.51
2023-04-02T21:42:08.307Z,5.51
2023-04-02T21:44:34.702Z,5.54
2023-04-02T21:47:01.222Z,5.57
2023-04-02T21:49:28.223Z,5.51
2023-04-02T21:51:54.710Z,5.61
2023-04-02T21:54:21.422Z,5.74
2023-04-02T21:56:48.553Z,5.78
2023-04-02T21:59:16.738Z,5.38
2023-04-02T22:01:48.487Z,5.69
2023-04-02T22:04:24.069Z,5.71
2023-04-02T22:06:52.156Z,5.79
2023-04-02T22:09:22.294Z,5.62
2023-04-02T22:11:56.106Z,5.57
2023-04-02T22:14:23.197Z,5.53
2023-04-02T22:16:49.667Z,5.61
2023-04-02T22:19:19.505Z,5.60
2023-04-02T22:21:46.252Z,5.54
2023-04-02T22:24:14.928Z,5.53
2023-04-02T22:26:41.857Z,5.51
2023-04-02T22:29:08.632Z,5.63
2023-04-02T22:31:35.777Z,5.55
2023-04-02T22:34:03.718Z,5.36
2023-04-02T22:36:32.872Z,5.30
2023-04-02T22:39:05.170Z,5.40
2023-04-02T22:41:32.071Z,5.49
2023-04-02T22:44:02.422Z,5.54
2023-04-02T22:46:29.972Z,5.58
2023-04-02T22:48:56.718Z,5.60
2023-04-02T22:51:25.582Z,5.63
2023-04-02T22:53:54.581Z,5.53
2023-04-02T22:56:28.489Z,5.65
2023-04-02T22:58:55.005Z,5.63
2023-04-02T23:01:27.105Z,5.60
2023-04-02T23:03:55.153Z,5.60
2023-04-02T23:06:22.662Z,5.37
2023-04-02T23:08:49.309Z,5.22
2023-04-02T23:11:22.172Z,5.12
2023-04-02T23:13:50.931Z,5.18
2023-04-02T23:16:17.995Z,4.99
2023-04-02T23:18:47.976Z,4.85
2023-04-02T23:21:15.906Z,4.80
2023-04-02T23:23:42.342Z,4.93
2023-04-02T23:26:23.780Z,5.00
2023-04-02T23:28:53.024Z,5.02
2023-04-02T23:31:22.105Z,4.93
2023-04-02T23:33:49.847Z,4.98
2023-04-02T23:36:24.787Z,4.83
2023-04-02T23:38:56.596Z,4.87
2023-04-02T23:41:26.687Z,4.83
2023-04-02T23:43:54.350Z,4.50
2023-04-02T23:46:21.085Z,4.42
2023-04-02T23:48:52.141Z,4.43
2023-04-02T23:51:18.812Z,4.40
2023-04-02T23:53:45.485Z,4.35
2023-04-02T23:56:12.088Z,4.37
2023-04-02T23:58:38.573Z,4.41
